Time;durP1;ratioP1;P1;durP2;ratioP2;P2;SDS_P1;SDS_P2;PMS_P1;PMS_P2;Temp;Humidity;BMP_temperature;BMP_pressure;BME280_temperature;BME280_humidity;BME280_pressure;Samples;Min_cycle;Max_cycle;Signal;HPM_P1;HPM_P2
2022/06/03 00:01:36;;;;;;;16.92;14.25;;;22.10;99.90;;;;;;5015321;28;20073;-52
2022/06/03 00:04:20;;;;;;;15.95;13.95;;;22.10;99.90;;;;;;5015485;28;20117;-48
2022/06/03 00:06:46;;;;;;;15.60;13.98;;;22.10;99.90;;;;;;5015238;28;20025;-54
2022/06/03 00:09:47;;;;;;;21.58;14.38;;;22.30;99.90;;;;;;5015110;28;20028;-54
2022/06/03 00:12:35;;;;;;;20.75;14.10;;;22.20;99.90;;;;;;5017030;28;20063;-56
2022/06/03 00:15:11;;;;;;;15.02;13.15;;;22.30;99.90;;;;;;5015076;28;20080;-52
2022/06/03 00:17:46;;;;;;;17.42;13.10;;;22.30;99.90;;;;;;5015042;28;20033;-57
2022/06/03 00:20:44;;;;;;;17.17;14.05;;;22.30;99.90;;;;;;5014974;28;20382;-52
2022/06/03 00:23:33;;;;;;;15.00;13.43;;;22.30;99.90;;;;;;5014869;28;20038;-55
2022/06/03 00:26:30;;;;;;;19.70;12.98;;;22.20;99.90;;;;;;5014807;28;20484;-51
2022/06/03 00:29:12;;;;;;;16.15;13.43;;;22.10;99.90;;;;;;5014535;28;20475;-53
2022/06/03 00:31:46;;;;;;;27.33;20.05;;;22.00;99.90;;;;;;5013828;28;20397;-51
2022/06/03 00:34:49;;;;;;;27.73;21.52;;;21.90;99.90;;;;;;5014679;28;20034;-53
2022/06/03 00:37:39;;;;;;;26.60;21.58;;;21.70;99.90;;;;;;5029434;28;20034;-55
2022/06/03 00:40:26;;;;;;;25.70;22.95;;;21.50;99.90;;;;;;5014614;28;20466;-54
2022/06/03 00:43:46;;;;;;;27.92;21.30;;;21.30;99.90;;;;;;5014636;28;20038;-53
2022/06/03 00:46:12;;;;;;;23.92;17.58;;;21.30;99.90;;;;;;5012459;28;20494;-57
2022/06/03 00:49:05;;;;;;;20.63;16.70;;;21.20;99.90;;;;;;5012468;28;20064;-51
2022/06/03 00:51:39;;;;;;;20.30;15.95;;;21.20;99.90;;;;;;5012488;28;20525;-48
2022/06/03 00:54:35;;;;;;;18.98;15.18;;;21.20;99.90;;;;;;5012259;28;20065;-54
2022/06/03 00:57:20;;;;;;;25.55;16.55;;;21.20;99.90;;;;;;5012055;28;20050;-54
2022/06/03 01:00:08;;;;;;;18.92;16.00;;;21.20;99.90;;;;;;5012251;28;20030;-52
2022/06/03 01:02:50;;;;;;;17.77;14.70;;;21.30;99.90;;;;;;4995655;28;20422;-53
2022/06/03 01:05:31;;;;;;;16.48;13.90;;;21.20;99.90;;;;;;5012186;28;20485;-50
2022/06/03 01:08:02;;;;;;;19.13;14.70;;;21.30;99.90;;;;;;5012145;28;20045;-58
2022/06/03 01:10:50;;;;;;;19.42;15.48;;;21.30;99.90;;;;;;5012077;28;20029;-54
2022/06/03 01:13:34;;;;;;;18.50;15.52;;;21.20;99.90;;;;;;5011965;28;20033;-52
2022/06/03 01:16:16;;;;;;;21.52;15.63;;;21.20;99.90;;;;;;5011839;28;20029;-54
2022/06/03 01:19:09;;;;;;;17.25;15.40;;;21.20;99.90;;;;;;5011959;28;20486;-52
2022/06/03 01:21:47;;;;;;;19.00;16.02;;;21.10;99.90;;;;;;5014040;28;20077;-55
2022/06/03 01:24:16;;;;;;;20.08;15.23;;;21.00;99.90;;;;;;5013796;28;20072;-50
2022/06/03 01:27:27;;;;;;;17.45;15.27;;;21.00;99.90;;;;;;5013830;28;20026;-52
2022/06/03 01:30:09;;;;;;;18.77;14.57;;;21.00;99.90;;;;;;5013745;28;20054;-54
2022/06/03 01:32:44;;;;;;;16.88;15.13;;;20.90;99.90;;;;;;5013850;28;20161;-51
2022/06/03 01:35:12;;;;;;;18.30;16.33;;;20.80;99.90;;;;;;5028404;28;20052;-55
2022/06/03 01:37:52;;;;;;;17.77;14.18;;;20.80;99.90;;;;;;5028485;28;20088;-54
2022/06/03 01:40:33;;;;;;;18.55;14.15;;;20.80;99.90;;;;;;5028191;28;20509;-57
2022/06/03 01:43:37;;;;;;;18.85;14.98;;;20.80;99.90;;;;;;5013620;28;20111;-53
2022/06/03 01:46:24;;;;;;;20.05;15.57;;;20.80;99.90;;;;;;4994900;28;20061;-51
2022/06/03 01:49:15;;;;;;;20.48;16.33;;;20.70;99.90;;;;;;5011616;28;20045;-51
2022/06/03 01:52:15;;;;;;;16.42;14.10;;;20.70;99.90;;;;;;5011502;28;20030;-51
2022/06/03 01:55:16;;;;;;;19.77;14.75;;;20.70;99.90;;;;;;4934146;29;20071;-51
2022/06/03 01:57:57;;;;;;;21.35;15.85;;;20.50;99.90;;;;;;4933792;29;20039;-51
2022/06/03 02:00:25;;;;;;;22.65;16.08;;;20.40;99.90;;;;;;4933780;29;20119;-50
2022/06/03 02:03:11;;;;;;;19.40;15.07;;;20.30;99.90;;;;;;4933736;29;20095;-53
2022/06/03 02:06:01;;;;;;;21.15;15.85;;;20.10;99.90;;;;;;4917546;29;20488;-56
2022/06/03 02:08:42;;;;;;;22.95;16.88;;;20.10;99.90;;;;;;4933807;29;20027;-51
2022/06/03 02:11:26;;;;;;;17.48;14.82;;;20.20;99.90;;;;;;4933947;29;20040;-48
2022/06/03 02:14:19;;;;;;;16.50;14.73;;;20.20;99.90;;;;;;4933938;29;20051;-56
2022/06/03 02:17:09;;;;;;;18.77;14.00;;;20.20;99.90;;;;;;4933906;29;20408;-50
2022/06/03 02:19:49;;;;;;;16.95;14.88;;;20.20;99.90;;;;;;4933685;29;20496;-51
2022/06/03 02:22:42;;;;;;;22.25;15.68;;;20.10;99.90;;;;;;4940707;29;20515;-52
2022/06/03 02:25:32;;;;;;;18.58;14.90;;;20.10;99.90;;;;;;4956837;29;20179;-52
2022/06/03 02:28:15;;;;;;;20.42;15.32;;;20.20;99.90;;;;;;4956154;28;20046;-51
2022/06/03 02:30:54;;;;;;;22.52;15.63;;;20.10;99.90;;;;;;4976046;28;20099;-50
2022/06/03 02:33:47;;;;;;;18.60;14.32;;;20.20;99.90;;;;;;5017140;28;20087;-51
2022/06/03 02:36:40;;;;;;;16.80;15.10;;;20.20;99.90;;;;;;5017135;28;20026;-48
2022/06/03 02:39:30;;;;;;;18.25;15.55;;;20.30;99.90;;;;;;5017045;28;20030;-53
2022/06/03 02:42:11;;;;;;;16.33;14.55;;;20.30;99.90;;;;;;5014715;28;20144;-51
2022/06/03 02:44:52;;;;;;;17.50;14.98;;;20.40;99.90;;;;;;5014621;28;20493;-55
2022/06/03 02:47:51;;;;;;;20.13;13.13;;;20.30;99.90;;;;;;5014653;28;20030;-53
2022/06/03 02:50:31;;;;;;;22.17;14.65;;;20.40;99.90;;;;;;5014619;28;20034;-52
2022/06/03 02:53:12;;;;;;;17.98;14.20;;;20.40;99.90;;;;;;5014546;28;20088;-54
2022/06/03 02:55:51;;;;;;;14.68;12.50;;;20.50;99.90;;;;;;5014508;28;20026;-56
2022/06/03 02:58:34;;;;;;;16.08;13.35;;;20.70;99.90;;;;;;4997940;28;20030;-52
2022/06/03 03:01:15;;;;;;;14.70;12.85;;;20.70;99.90;;;;;;5014377;28;20037;-56
2022/06/03 03:03:48;;;;;;;15.60;12.93;;;20.80;99.90;;;;;;5014368;28;20477;-52
2022/06/03 03:06:54;;;;;;;16.60;11.70;;;20.80;99.90;;;;;;5014261;28;20038;-51
2022/06/03 03:09:26;;;;;;;11.95;10.60;;;20.90;99.90;;;;;;5014252;28;20532;-55
2022/06/03 03:12:16;;;;;;;14.90;11.70;;;20.90;99.90;;;;;;5014139;28;20502;-56
2022/06/03 03:15:13;;;;;;;13.65;11.52;;;20.90;99.90;;;;;;5014090;28;20532;-54
2022/06/03 03:18:02;;;;;;;13.10;11.05;;;20.70;99.90;;;;;;5013909;28;20552;-58
2022/06/03 03:20:47;;;;;;;15.35;12.43;;;20.50;99.90;;;;;;5016147;28;20022;-55
2022/06/03 03:23:19;;;;;;;13.05;11.75;;;20.50;99.90;;;;;;5015956;28;20084;-50
2022/06/03 03:26:03;;;;;;;16.17;13.35;;;20.40;99.90;;;;;;5016061;28;20030;-47
2022/06/03 03:28:37;;;;;;;15.70;12.82;;;20.40;99.90;;;;;;5030418;28;20048;-57
2022/06/03 03:31:05;;;;;;;14.63;11.45;;;20.40;99.90;;;;;;5015831;28;20038;-53
2022/06/03 03:34:03;;;;;;;14.45;11.68;;;20.30;99.90;;;;;;5014688;28;20083;-53
2022/06/03 03:36:43;;;;;;;14.48;11.77;;;20.40;99.90;;;;;;5015797;28;20026;-53
2022/06/03 03:39:40;;;;;;;15.85;11.73;;;20.40;99.90;;;;;;5015871;28;20084;-51
2022/06/03 03:42:32;;;;;;;12.18;11.07;;;20.50;99.90;;;;;;5015570;28;20038;-50
2022/06/03 03:45:22;;;;;;;13.07;10.63;;;20.70;99.90;;;;;;5015765;28;20026;-53
2022/06/03 03:47:57;;;;;;;14.75;11.57;;;20.90;99.90;;;;;;5046930;28;20132;-50
2022/06/03 03:50:56;;;;;;;12.45;10.90;;;21.00;99.90;;;;;;5015687;28;20026;-48
2022/06/03 03:53:29;;;;;;;16.60;11.35;;;21.00;99.90;;;;;;5015675;28;20030;-51
2022/06/03 03:56:32;;;;;;;11.68;10.40;;;21.00;99.90;;;;;;5015419;28;20429;-52
2022/06/03 03:59:16;;;;;;;12.43;11.13;;;21.00;99.90;;;;;;5015344;28;20113;-51
2022/06/03 04:02:06;;;;;;;12.10;10.90;;;21.00;99.90;;;;;;5016708;28;20184;-50
2022/06/03 04:04:54;;;;;;;13.02;11.57;;;21.20;99.90;;;;;;5013545;28;20038;-55
2022/06/03 04:07:43;;;;;;;14.48;11.27;;;21.40;99.90;;;;;;5031878;28;20029;-51
2022/06/03 04:10:50;;;;;;;16.10;10.10;;;21.50;99.90;;;;;;5035012;28;20060;-51
2022/06/03 04:13:51;;;;;;;12.68;10.35;;;21.70;99.90;;;;;;5032844;28;20037;-52
2022/06/03 04:16:34;;;;;;;11.82;9.73;;;21.60;99.90;;;;;;5009353;28;20049;-50
2022/06/03 04:19:12;;;;;;;12.75;9.73;;;21.60;99.90;;;;;;5012235;28;20034;-50
2022/06/03 04:21:44;;;;;;;15.80;10.35;;;21.60;99.90;;;;;;5012406;28;20116;-48
2022/06/03 04:24:56;;;;;;;12.43;10.40;;;21.90;99.90;;;;;;4996345;28;20489;-50
2022/06/03 04:27:34;;;;;;;;;;;22.10;99.90;;;;;;5013054;28;20446;-49
2022/06/03 04:30:30;;;;;;;12.50;9.73;;;22.20;99.90;;;;;;5012560;28;19923;-52
2022/06/03 04:33:14;;;;;;;14.18;10.85;;;22.40;99.90;;;;;;5012806;28;20108;-52
2022/06/03 04:35:45;;;;;;;12.75;9.98;;;22.40;99.90;;;;;;4993359;28;20473;-50
2022/06/03 04:38:47;;;;;;;13.60;9.10;;;22.50;99.90;;;;;;4992921;28;20040;-53
2022/06/03 04:41:40;;;;;;;12.60;10.65;;;22.30;99.90;;;;;;4992847;28;20030;-51
2022/06/03 04:44:28;;;;;;;13.30;11.73;;;22.10;99.90;;;;;;4992519;28;20065;-50
2022/06/03 04:47:15;;;;;;;14.43;12.02;;;22.00;99.90;;;;;;4994964;28;20061;-51
2022/06/03 04:50:00;;;;;;;11.73;10.32;;;22.10;99.90;;;;;;4998427;28;20100;-54
2022/06/03 04:53:02;;;;;;;15.43;12.18;;;22.30;99.90;;;;;;5027609;28;20033;-54
2022/06/03 04:56:02;;;;;;;15.35;12.02;;;22.20;99.90;;;;;;5029992;28;20606;-48
2022/06/03 04:58:31;;;;;;;13.93;11.80;;;22.20;99.90;;;;;;5031967;28;20027;-54
2022/06/03 05:01:33;;;;;;;13.27;11.05;;;22.40;99.90;;;;;;5033444;28;20393;-51
2022/06/03 05:04:08;;;;;;;17.00;12.25;;;22.40;99.90;;;;;;5033092;28;20083;-54
2022/06/03 05:06:47;;;;;;;13.95;11.45;;;22.60;99.90;;;;;;5031060;28;20067;-51
2022/06/03 05:09:37;;;;;;;16.17;11.13;;;22.70;99.90;;;;;;5033797;28;20041;-50
2022/06/03 05:12:08;;;;;;;12.95;11.68;;;22.80;99.90;;;;;;5033946;28;20021;-51
2022/06/03 05:14:53;;;;;;;12.43;11.13;;;22.90;99.90;;;;;;5033930;28;20060;-51
2022/06/03 05:17:57;;;;;;;12.48;11.00;;;22.90;99.90;;;;;;5033774;28;20366;-53
2022/06/03 05:20:35;;;;;;;16.23;11.75;;;23.00;99.90;;;;;;5033590;28;20033;-55
2022/06/03 05:23:29;;;;;;;13.23;11.85;;;22.90;99.90;;;;;;5032097;28;20051;-56
2022/06/03 05:26:25;;;;;;;18.05;12.35;;;22.70;99.90;;;;;;5033045;28;20099;-55
2022/06/03 05:29:05;;;;;;;13.90;12.50;;;22.70;99.90;;;;;;5033585;28;20049;-54
2022/06/03 05:31:49;;;;;;;14.40;12.90;;;22.80;99.90;;;;;;5029076;28;20026;-52
2022/06/03 05:34:57;;;;;;;16.88;12.43;;;22.80;99.90;;;;;;5030362;28;20141;-55
2022/06/03 05:37:41;;;;;;;13.98;12.27;;;22.70;99.90;;;;;;5001541;28;20080;-55
2022/06/03 05:40:31;;;;;;;16.58;12.38;;;22.50;99.90;;;;;;4994584;28;20124;-54
2022/06/03 05:43:27;;;;;;;13.48;12.10;;;22.40;99.90;;;;;;5007794;28;20068;-50
2022/06/03 05:46:16;;;;;;;14.88;12.52;;;22.70;99.90;;;;;;4993615;28;20034;-51
2022/06/03 05:48:45;;;;;;;14.65;12.55;;;22.80;99.90;;;;;;5009058;28;20030;-52
2022/06/03 05:51:45;;;;;;;21.58;13.70;;;22.80;99.90;;;;;;5010276;28;20022;-51
2022/06/03 05:54:30;;;;;;;14.48;13.00;;;22.90;99.90;;;;;;5010914;28;20045;-48
2022/06/03 05:57:12;;;;;;;15.15;12.75;;;22.80;99.90;;;;;;5010677;28;20030;-52
2022/06/03 05:59:56;;;;;;;17.15;13.88;;;22.90;99.90;;;;;;5011541;28;20548;-50
2022/06/03 06:02:33;;;;;;;15.00;12.65;;;23.00;99.90;;;;;;4981438;28;20144;-51
2022/06/03 06:05:17;;;;;;;16.05;12.50;;;23.10;99.90;;;;;;5003784;28;20113;-55
2022/06/03 06:08:07;;;;;;;13.82;12.10;;;22.80;99.90;;;;;;4983053;28;20038;-51
2022/06/03 06:10:42;;;;;;;14.73;11.63;;;23.00;99.90;;;;;;4991710;28;20486;-54
2022/06/03 06:13:10;;;;;;;10.93;9.30;;;23.20;99.90;;;;;;4975586;28;20031;-55
2022/06/03 06:15:48;;;;;;;11.48;9.43;;;23.40;99.90;;;;;;5012539;28;20485;-52
2022/06/03 06:18:26;;;;;;;13.73;10.77;;;23.60;99.90;;;;;;5013460;28;20026;-55
2022/06/03 06:21:12;;;;;;;13.60;10.25;;;23.50;99.90;;;;;;5022264;28;20034;-55
2022/06/03 06:23:46;;;;;;;14.68;10.18;;;23.60;99.90;;;;;;5023191;28;20424;-52
2022/06/03 06:26:12;;;;;;;11.52;10.23;;;23.70;99.90;;;;;;5031100;28;20401;-49
2022/06/03 06:29:04;;;;;;;13.43;9.40;;;;;;;;;;5014253;28;20048;-54
2022/06/03 06:31:43;;;;;;;10.23;9.00;;;;;;;;;;5031024;28;20431;-53
2022/06/03 06:34:23;;;;;;;12.73;10.25;;;23.50;99.90;;;;;;5031031;28;20049;-50
2022/06/03 06:37:05;;;;;;;9.90;8.40;;;23.70;99.90;;;;;;5030933;28;20172;-56
2022/06/03 06:40:10;;;;;;;11.35;8.50;;;23.80;99.90;;;;;;5013097;28;20128;-55
2022/06/03 06:42:46;;;;;;;12.75;7.78;;;;;;;;;;5011019;28;20129;-55
2022/06/03 06:45:40;;;;;;;11.90;7.95;;;23.90;99.90;;;;;;5011132;28;20041;-53
2022/06/03 06:48:15;;;;;;;10.60;8.25;;;24.20;99.90;;;;;;5011149;28;20037;-53
2022/06/03 06:50:51;;;;;;;11.75;8.43;;;24.30;99.90;;;;;;5011339;28;20070;-56
2022/06/03 06:53:50;;;;;;;9.18;7.78;;;;;;;;;;5027509;28;20068;-50
2022/06/03 06:56:22;;;;;;;7.75;6.95;;;;;;;;;;5011045;28;20437;-57
2022/06/03 06:58:55;;;;;;;10.77;7.53;;;;;;;;;;5011097;28;20513;-52
2022/06/03 07:01:26;;;;;;;9.02;7.78;;;;;;;;;;5011035;28;20042;-54
2022/06/03 07:03:55;;;;;;;11.63;7.90;;;;;;;;;;5010982;28;20483;-52
2022/06/03 07:06:41;;;;;;;10.98;8.55;;;;;;;;;;5010899;28;20042;-53
2022/06/03 07:09:10;;;;;;;7.88;6.97;;;;;;;;;;4981346;28;20443;-50
2022/06/03 07:11:57;;;;;;;7.68;6.88;;;;;;;;;;5014451;28;20045;-57
2022/06/03 07:14:28;;;;;;;10.00;7.75;;;;;;;;;;5014277;28;20507;-52
2022/06/03 07:19:54;;;;;;;9.15;6.88;;;;;;;;;;5014162;28;20131;-51
2022/06/03 07:22:20;;;;;;;7.50;6.75;;;;;;;;;;5014052;28;20033;-53
2022/06/03 07:25:07;;;;;;;8.65;6.47;;;26.00;99.90;;;;;;5014024;28;20046;-53
2022/06/03 07:27:45;;;;;;;8.40;6.38;;;;;;;;;;5026552;28;20431;-49
2022/06/03 07:30:24;;;;;;;8.85;6.32;;;26.00;99.90;;;;;;5032922;28;20041;-52
2022/06/03 07:33:17;;;;;;;7.85;5.95;;;26.00;99.90;;;;;;5030632;28;20045;-56
2022/06/03 07:35:46;;;;;;;8.43;6.32;;;;;;;;;;5025727;28;20069;-52
2022/06/03 07:38:17;;;;;;;6.63;5.93;;;;;;;;;;5047365;28;20052;-55
2022/06/03 07:40:46;;;;;;;5.95;5.30;;;;;;;;;;5043489;28;20034;-52
2022/06/03 07:43:35;;;;;;;7.65;6.00;;;;;;;;;;5014376;28;20519;-48
2022/06/03 07:46:16;;;;;;;8.07;6.60;;;26.70;99.90;;;;;;5025754;28;20030;-49
2022/06/03 07:48:42;;;;;;;8.10;5.32;;;;;;;;;;5048048;28;20203;-51
2022/06/03 07:51:19;;;;;;;8.35;5.60;;;26.80;99.90;;;;;;5022713;28;20029;-52
2022/06/03 07:53:56;;;;;;;6.32;5.55;;;27.10;99.90;;;;;;5013813;28;20508;-52
2022/06/03 07:56:24;;;;;;;7.70;4.90;;;;;;;;;;5012974;28;20038;-52
2022/06/03 07:58:57;;;;;;;6.43;4.70;;;;;;;;;;5016940;28;20033;-52
2022/06/03 08:01:33;;;;;;;9.77;5.05;;;27.40;99.90;;;;;;5025460;28;20035;-53
2022/06/03 08:04:00;;;;;;;7.10;5.40;;;;;;;;;;5016376;28;20030;-52
2022/06/03 08:12:07;;;;;;;7.03;4.60;;;27.70;99.90;;;;;;5029605;28;20543;-52
2022/06/03 08:14:33;;;;;;;5.13;4.30;;;27.80;99.90;;;;;;4967312;28;20069;-52
2022/06/03 08:17:04;;;;;;;10.30;4.97;;;28.00;99.90;;;;;;4979908;28;20117;-52
2022/06/03 08:19:34;;;;;;;9.13;4.63;;;28.10;99.90;;;;;;5046382;28;20438;-52
2022/06/03 08:22:03;;;;;;;6.45;4.68;;;28.60;99.90;;;;;;5031304;28;20072;-52
2022/06/03 08:24:31;;;;;;;7.43;4.50;;;;;;;;;;4988308;28;20046;-52
2022/06/03 08:26:59;;;;;;;7.88;4.47;;;;;;;;;;4968595;28;20038;-52
2022/06/03 08:29:37;;;;;;;5.32;3.55;;;;;;;;;;4989320;28;20046;-52
2022/06/03 08:32:15;;;;;;;5.90;4.60;;;28.70;99.90;;;;;;4992300;28;20035;-52
2022/06/03 08:34:44;;;;;;;7.78;4.20;;;;;;;;;;4992641;28;20038;-52
2022/06/03 08:37:15;;;;;;;10.20;4.05;;;28.80;99.90;;;;;;4967660;28;20037;-51
2022/06/03 08:39:43;;;;;;;5.85;5.15;;;28.80;99.90;;;;;;4989804;28;20129;-53
2022/06/03 08:42:27;;;;;;;8.15;4.75;;;28.90;99.90;;;;;;4991430;28;20054;-52
2022/06/03 08:45:22;;;;;;;5.90;4.60;;;28.80;99.90;;;;;;4991604;28;20433;-53
2022/06/03 08:47:59;;;;;;;4.80;4.25;;;29.20;99.90;;;;;;4992103;28;20042;-52
2022/06/03 08:50:39;;;;;;;7.35;3.88;;;29.20;99.90;;;;;;4970658;28;20419;-52
2022/06/03 08:53:07;;;;;;;5.15;4.18;;;29.40;99.90;;;;;;4983164;28;20375;-52
2022/06/03 08:55:54;;;;;;;6.63;4.50;;;29.40;99.90;;;;;;5006378;28;20041;-52
2022/06/03 08:58:58;;;;;;;6.75;4.00;;;29.40;99.90;;;;;;5008019;28;20049;-52
2022/06/03 09:01:48;;;;;;;5.35;3.92;;;29.30;99.90;;;;;;5022625;28;20049;-53
2022/06/03 09:04:32;;;;;;;5.32;3.28;;;29.40;99.90;;;;;;5051225;28;20037;-52
2022/06/03 09:06:58;;;;;;;5.90;3.58;;;;;;;;;;5061017;28;20041;-52
2022/06/03 09:09:40;;;;;;;6.93;4.32;;;;;;;;;;5070106;28;20376;-51
2022/06/03 09:12:12;;;;;;;4.63;3.83;;;;;;;;;;5070346;28;20034;-51
2022/06/03 09:14:40;;;;;;;5.75;4.07;;;;;;;;;;5008395;28;20033;-54
2022/06/03 09:17:32;;;;;;;8.70;4.20;;;;;;;;;;5006145;28;20116;-51
2022/06/03 09:19:59;;;;;;;4.40;3.35;;;;;;;;;;5008396;28;20048;-52
2022/06/03 09:22:28;;;;;;;6.05;3.38;;;;;;;;;;5010696;28;20037;-52
2022/06/03 09:24:58;;;;;;;6.90;3.50;;;;;;;;;;5009144;28;20045;-52
2022/06/03 09:27:25;;;;;;;5.63;3.80;;;;;;;;;;5009399;28;20069;-55
2022/06/03 09:29:54;;;;;;;6.32;4.03;;;;;;;;;;5003884;28;20521;-53
2022/06/03 09:32:22;;;;;;;8.27;3.40;;;;;;;;;;5002055;28;20042;-51
2022/06/03 09:34:50;;;;;;;5.60;3.38;;;;;;;;;;4961598;28;20490;-50
2022/06/03 09:37:22;;;;;;;4.55;3.50;;;;;;;;;;4985774;28;20038;-56
2022/06/03 09:39:49;;;;;;;8.73;3.30;;;;;;;;;;4984164;28;20046;-55
2022/06/03 09:42:17;;;;;;;5.05;3.85;;;;;;;;;;4989890;28;20050;-54
2022/06/03 09:44:45;;;;;;;3.85;3.38;;;;;;;;;;4994100;28;20044;-54
2022/06/03 09:47:12;;;;;;;4.30;3.22;;;;;;;;;;5013613;28;20037;-54
2022/06/03 09:49:38;;;;;;;5.93;2.88;;;;;;;;;;5012512;28;20489;-55
2022/06/03 09:52:08;;;;;;;3.72;2.55;;;;;;;;;;5014541;28;20061;-55
2022/06/03 09:54:39;;;;;;;7.10;3.40;;;31.50;99.90;;;;;;5020284;28;20033;-55
2022/06/03 09:57:18;;;;;;;4.80;2.80;;;31.50;99.90;;;;;;5012634;28;20030;-54
2022/06/03 10:00:00;;;;;;;4.85;3.05;;;31.50;99.90;;;;;;5024076;28;20122;-55
2022/06/03 10:02:27;;;;;;;5.28;3.80;;;;;;;;;;5011143;28;20074;-56
2022/06/03 10:04:54;;;;;;;4.70;3.63;;;31.60;99.90;;;;;;5027071;28;20470;-54
2022/06/03 10:07:25;;;;;;;4.50;3.40;;;31.90;99.90;;;;;;5044070;28;20490;-55
2022/06/03 10:12:50;;;;;;;8.60;3.45;;;32.40;99.90;;;;;;5024614;28;20305;-56
2022/06/03 10:15:39;;;;;;;7.07;3.60;;;31.90;99.90;;;;;;5021456;28;20041;-55
2022/06/03 10:18:24;;;;;;;5.55;3.13;;;31.50;99.90;;;;;;5021173;28;20083;-54
2022/06/03 10:20:53;;;;;;;7.20;3.75;;;32.10;99.90;;;;;;5030505;28;20065;-55
2022/06/03 10:23:21;;;;;;;7.05;3.90;;;32.40;99.90;;;;;;5011757;28;20041;-57
2022/06/03 10:25:51;;;;;;;7.13;3.60;;;32.60;99.90;;;;;;5020193;28;20057;-55
2022/06/03 10:28:18;;;;;;;6.03;3.60;;;33.00;99.90;;;;;;5052742;28;20045;-55
2022/06/03 10:30:45;;;;;;;5.90;3.55;;;;;;;;;;5013647;28;20389;-56
2022/06/03 10:33:20;;;;;;;6.35;3.75;;;33.00;99.90;;;;;;5014991;28;20034;-54
2022/06/03 10:35:47;;;;;;;6.15;4.50;;;;;;;;;;5020746;28;20053;-56
2022/06/03 10:38:17;;;;;;;7.10;4.57;;;32.90;99.90;;;;;;5009563;28;20049;-55
2022/06/03 10:40:50;;;;;;;9.27;3.90;;;33.00;99.90;;;;;;5009710;28;20034;-55
2022/06/03 10:43:25;;;;;;;5.53;3.58;;;33.40;99.90;;;;;;5023559;28;20073;-59
2022/06/03 10:45:52;;;;;;;6.78;3.83;;;33.80;99.90;;;;;;5030206;28;20033;-58
2022/06/03 10:48:20;;;;;;;5.10;3.58;;;;;;;;;;5032438;28;20037;-55
2022/06/03 10:50:46;;;;;;;3.65;3.30;;;33.70;99.90;;;;;;5032553;28;20061;-55
2022/06/03 11:01:55;;;;;;;8.38;3.40;;;34.10;99.50;;;;;;5043654;28;20051;-56
2022/06/03 11:04:39;;;;;;;5.13;3.40;;;34.20;99.30;;;;;;5012816;28;20041;-58
2022/06/03 11:07:25;;;;;;;6.47;3.70;;;34.10;98.70;;;;;;5020593;28;20131;-58
2022/06/03 11:10:00;;;;;;;4.38;3.00;;;34.20;97.40;;;;;;5022117;28;20509;-58
2022/06/03 11:12:29;;;;;;;6.07;3.13;;;34.20;97.30;;;;;;4963570;28;20039;-60
2022/06/03 11:14:55;;;;;;;4.50;3.65;;;;;;;;;;4965359;28;20043;-55
2022/06/03 11:17:24;;;;;;;3.72;3.20;;;34.40;96.70;;;;;;4955322;29;20054;-54
2022/06/03 11:19:53;;;;;;;4.72;2.65;;;34.50;96.70;;;;;;4955468;29;20039;-57
2022/06/03 11:22:31;;;;;;;10.55;3.78;;;34.30;96.70;;;;;;4939416;29;20098;-51
2022/06/03 11:25:02;;;;;;;5.75;2.80;;;34.10;97.30;;;;;;4963438;28;20043;-62
2022/06/03 11:27:59;;;;;;;4.78;2.53;;;33.70;97.20;;;;;;4948355;28;20038;-56
2022/06/03 11:30:47;;;;;;;7.35;3.50;;;33.50;96.30;;;;;;4964552;28;20092;-53
2022/06/03 11:33:41;;;;;;;6.90;3.83;;;33.10;96.30;;;;;;4965453;28;20043;-57
2022/06/03 11:36:19;;;;;;;5.97;3.05;;;32.70;96.30;;;;;;4996276;28;20034;-55
2022/06/03 11:39:01;;;;;;;5.97;3.45;;;32.40;99.70;;;;;;4998125;28;20045;-57
2022/06/03 11:41:48;;;;;;;8.93;3.20;;;31.90;96.40;;;;;;4993178;28;20030;-61
2022/06/03 11:44:25;;;;;;;6.07;2.65;;;;;;;;;;5022830;28;20046;-55
2022/06/03 11:47:16;;;;;;;3.75;2.45;;;31.80;99.90;;;;;;5035594;28;20057;-51
2022/06/03 11:49:42;;;;;;;3.83;3.00;;;31.90;96.90;;;;;;5034786;28;20341;-52
2022/06/03 11:52:08;;;;;;;4.75;2.80;;;;;;;;;;4999914;28;20033;-52
2022/06/03 11:54:34;;;;;;;6.53;3.08;;;;;;;;;;5032400;28;20120;-50
2022/06/03 11:57:02;;;;;;;5.60;3.13;;;33.00;99.90;;;;;;5031201;28;20044;-47
2022/06/03 11:59:50;;;;;;;7.90;3.15;;;33.00;95.90;;;;;;5025235;28;20045;-46
2022/06/03 12:02:38;;;;;;;4.30;2.80;;;33.50;96.70;;;;;;5030279;28;20042;-46
2022/06/03 12:05:19;;;;;;;4.35;3.38;;;33.40;95.60;;;;;;5026753;28;20037;-51
2022/06/03 12:07:51;;;;;;;3.92;2.78;;;;;;;;;;5057778;28;20183;-51
2022/06/03 12:13:45;;;;;;;8.73;3.00;;;;;;;;;;5030971;28;20032;-54
2022/06/03 12:16:17;;;;;;;3.88;2.60;;;34.30;95.60;;;;;;5032472;28;20503;-50
2022/06/03 12:19:03;;;;;;;8.07;2.90;;;;;;;;;;5034666;28;20424;-51
2022/06/03 12:21:30;;;;;;;8.85;3.15;;;34.40;94.60;;;;;;5033534;28;20037;-50
2022/06/03 12:24:16;;;;;;;4.57;2.75;;;34.70;95.10;;;;;;5025887;28;20037;-51
2022/06/03 12:26:47;;;;;;;4.78;2.78;;;34.80;93.40;;;;;;5032855;28;20041;-51
2022/06/03 12:29:33;;;;;;;4.78;2.63;;;34.40;92.10;;;;;;5065043;28;20058;-52
2022/06/03 12:32:22;;;;;;;2.45;2.20;;;34.30;92.00;;;;;;5031813;28;20409;-52
2022/06/03 12:34:49;;;;;;;6.07;3.95;;;34.30;92.30;;;;;;5031579;28;20044;-52
2022/06/03 12:37:25;;;;;;;5.30;2.50;;;34.30;92.80;;;;;;5044297;28;20068;-52
2022/06/03 12:40:00;;;;;;;4.28;2.40;;;34.10;92.40;;;;;;5033112;28;20029;-51
2022/06/03 12:42:26;;;;;;;3.92;2.65;;;34.50;93.10;;;;;;5025377;28;20033;-52
2022/06/03 12:45:14;;;;;;;3.58;2.47;;;34.80;93.10;;;;;;5032180;28;20032;-52
2022/06/03 12:47:47;;;;;;;4.65;2.35;;;34.90;92.50;;;;;;5032200;28;20036;-51
2022/06/03 12:50:31;;;;;;;4.18;2.53;;;;;;;;;;5027240;28;20033;-51
2022/06/03 12:53:06;;;;;;;3.65;2.53;;;35.00;92.10;;;;;;5021212;28;20088;-51
2022/06/03 12:55:36;;;;;;;2.55;2.20;;;34.70;91.20;;;;;;5029943;28;20030;-51
2022/06/03 12:58:17;;;;;;;2.60;2.05;;;35.00;91.30;;;;;;5027983;28;20037;-51
2022/06/03 13:00:51;;;;;;;4.13;2.20;;;35.30;92.10;;;;;;5032506;28;20032;-52
2022/06/03 13:03:17;;;;;;;3.85;2.40;;;35.50;91.50;;;;;;5032172;28;20124;-52
2022/06/03 13:05:43;;;;;;;3.88;2.20;;;35.40;91.60;;;;;;5031727;28;20033;-49
2022/06/03 13:09:34;;;;;;;2.92;2.33;;;35.50;91.60;;;;;;5031844;28;20116;-51
2022/06/03 13:11:20;;;;;;;3.67;3.05;;;35.20;91.10;;;;;;5027921;28;20269;-53
2022/06/03 13:13:54;;;;;;;2.30;2.10;;;35.20;91.50;;;;;;5030690;28;20119;-50
2022/06/03 13:16:31;;;;;;;3.38;2.10;;;35.40;90.70;;;;;;5027929;28;20152;-53
2022/06/03 13:19:19;;;;;;;2.65;2.33;;;34.80;90.50;;;;;;5014484;28;20045;-48
2022/06/03 13:22:00;;;;;;;5.55;2.28;;;35.10;90.90;;;;;;5031332;28;20099;-50
2022/06/03 13:24:32;;;;;;;4.57;2.30;;;35.30;90.90;;;;;;5027259;28;20136;-49
2022/06/03 13:27:23;;;;;;;3.53;2.30;;;35.30;90.80;;;;;;5011376;28;20489;-50
2022/06/03 13:29:52;;;;;;;4.28;2.42;;;35.10;90.90;;;;;;4997739;28;20042;-52
2022/06/03 13:32:52;;;;;;;4.60;2.30;;;34.50;90.70;;;;;;5016886;28;20482;-57
2022/06/03 13:35:20;;;;;;;2.97;2.10;;;34.70;90.10;;;;;;5002529;28;20167;-57
2022/06/03 13:38:16;;;;;;;2.70;1.92;;;34.40;89.30;;;;;;5009662;28;20080;-57
2022/06/03 13:42:57;;;;;;;4.63;2.17;;;33.90;89.30;;;;;;5009584;28;20048;-57
2022/06/03 13:43:29;;;;;;;3.85;2.40;;;34.20;90.40;;;;;;4991164;28;20046;-56
2022/06/03 13:45:59;;;;;;;3.22;2.88;;;34.00;90.60;;;;;;4973803;28;20519;-56
2022/06/03 13:48:30;;;;;;;5.18;2.28;;;34.10;90.80;;;;;;4979017;28;20039;-56
2022/06/03 13:50:56;;;;;;;4.10;2.20;;;34.70;91.10;;;;;;4974989;28;20042;-56
2022/06/03 13:53:26;;;;;;;4.93;2.30;;;34.90;90.80;;;;;;4948272;28;20288;-58
2022/06/03 13:55:53;;;;;;;2.50;2.28;;;;;;;;;;4966451;28;20037;-56
2022/06/03 13:58:31;;;;;;;4.47;2.38;;;34.90;90.40;;;;;;4963910;28;20063;-58
2022/06/03 14:01:05;;;;;;;3.03;1.90;;;34.40;90.60;;;;;;4951614;28;20039;-57
2022/06/03 14:03:41;;;;;;;3.15;2.33;;;34.50;91.00;;;;;;4950649;28;20047;-56
2022/06/03 14:06:28;;;;;;;5.55;2.80;;;34.70;90.90;;;;;;4950526;29;20047;-57
2022/06/03 14:09:05;;;;;;;3.15;2.40;;;34.20;90.50;;;;;;4950798;29;20039;-57
2022/06/03 14:11:40;;;;;;;3.63;2.20;;;34.50;90.90;;;;;;4970310;28;20045;-56
2022/06/03 14:14:14;;;;;;;5.75;2.22;;;34.80;90.60;;;;;;5029179;28;20129;-57
2022/06/03 14:17:04;;;;;;;3.03;2.20;;;35.00;90.80;;;;;;5032166;28;20060;-57
2022/06/03 14:19:49;;;;;;;3.63;2.05;;;34.80;90.00;;;;;;5035784;28;20029;-55
2022/06/03 14:22:33;;;;;;;3.58;2.35;;;34.40;90.00;;;;;;5035036;28;20034;-56
2022/06/03 14:25:17;;;;;;;4.97;2.25;;;34.80;90.30;;;;;;5035217;28;20059;-56
2022/06/03 14:27:43;;;;;;;3.25;2.20;;;35.10;90.50;;;;;;5032447;28;20033;-56
2022/06/03 14:30:18;;;;;;;3.47;1.80;;;35.40;90.80;;;;;;5028525;28;20049;-56